createdAt,value
2023-05-13T00:04:02.840Z,100523.00
2023-05-13T00:09:04.176Z,100524.56
2023-05-13T00:14:06.413Z,100524.16
2023-05-13T00:19:07.820Z,100529.91
2023-05-13T00:24:09.112Z,100526.19
2023-05-13T00:29:10.283Z,100522.22
2023-05-13T00:34:11.949Z,100522.19
2023-05-13T00:39:13.344Z,100520.69
2023-05-13T00:44:14.708Z,100522.53
2023-05-13T00:49:15.947Z,100524.16
2023-05-13T00:54:17.161Z,100527.56
2023-05-13T00:59:18.317Z,100535.78
2023-05-13T01:04:19.529Z,100526.19
2023-05-13T01:09:20.678Z,100524.53
2023-05-13T01:14:22.094Z,100526.19
2023-05-13T01:19:23.304Z,100521.13
2023-05-13T01:24:24.499Z,100517.22
2023-05-13T01:29:25.978Z,100518.41
2023-05-13T01:34:27.271Z,100519.34
2023-05-13T01:39:28.470Z,100525.44
2023-05-13T01:44:29.680Z,100519.88
2023-05-13T01:49:30.942Z,100520.28
2023-05-13T01:54:32.243Z,100525.31
2023-05-13T01:59:33.435Z,100522.97
2023-05-13T02:04:34.676Z,100519.38
2023-05-13T02:09:35.945Z,100518.25
2023-05-13T02:14:38.503Z,100528.13
2023-05-13T02:19:39.720Z,100533.94
2023-05-13T02:24:41.137Z,100534.50
2023-05-13T02:29:42.314Z,100530.56
2023-05-13T02:34:43.666Z,100526.84
2023-05-13T02:39:45.139Z,100525.78
2023-05-13T02:44:46.473Z,100526.28
2023-05-13T02:49:47.692Z,100530.97
2023-05-13T02:54:49.130Z,100522.31
2023-05-13T02:59:50.485Z,100523.44
2023-05-13T03:04:51.710Z,100527.72
2023-05-13T03:09:52.943Z,100521.44
2023-05-13T03:14:54.208Z,100525.66
2023-05-13T03:19:55.553Z,100520.13
2023-05-13T03:24:58.229Z,100520.31
2023-05-13T03:29:59.443Z,100520.03
2023-05-13T03:35:01.003Z,100523.38
2023-05-13T03:40:02.367Z,100530.47
2023-05-13T03:45:03.567Z,100534.38
2023-05-13T03:50:04.837Z,100534.38
2023-05-13T03:55:06.579Z,100527.78
2023-05-13T04:00:07.821Z,100526.00
2023-05-13T04:05:09.538Z,100531.41
2023-05-13T04:10:13.810Z,100524.63
2023-05-13T04:15:16.553Z,100533.19
2023-05-13T04:20:17.867Z,100541.28
2023-05-13T04:25:19.125Z,100541.00
2023-05-13T04:30:20.651Z,100539.06
2023-05-13T04:35:22.068Z,100536.44
2023-05-13T04:40:23.494Z,100544.81
2023-05-13T04:45:24.920Z,100545.91
2023-05-13T04:50:26.303Z,100545.09
2023-05-13T04:55:28.087Z,100551.06
2023-05-13T05:00:29.392Z,100557.53
2023-05-13T05:05:30.575Z,100556.66
2023-05-13T05:10:31.852Z,100568.69
2023-05-13T05:15:33.075Z,100572.06
2023-05-13T05:20:34.398Z,100580.00
2023-05-13T05:25:35.689Z,100577.75
2023-05-13T05:30:39.580Z,100580.69
2023-05-13T05:35:41.653Z,100581.78
2023-05-13T05:40:42.838Z,100580.34
2023-05-13T05:45:44.083Z,100584.16
2023-05-13T05:50:45.351Z,100591.28
2023-05-13T05:55:46.588Z,100593.13
2023-05-13T06:00:47.780Z,100602.59
2023-05-13T06:05:49.005Z,100595.50
2023-05-13T06:10:50.415Z,100594.38
2023-05-13T06:15:51.671Z,100589.38
2023-05-13T06:20:52.879Z,100595.31
2023-05-13T06:25:54.804Z,100598.13
2023-05-13T06:30:56.604Z,100607.84
2023-05-13T06:35:57.802Z,100605.50
2023-05-13T06:40:58.978Z,100609.75
2023-05-13T06:46:00.957Z,100606.69
2023-05-13T06:51:02.149Z,100615.06
2023-05-13T06:56:03.478Z,100626.19
2023-05-13T07:01:04.774Z,100620.19
2023-05-13T07:06:06.004Z,100623.91
2023-05-13T07:11:07.210Z,100624.09
2023-05-13T07:16:08.442Z,100619.06
2023-05-13T07:21:09.709Z,100618.28
2023-05-13T07:26:11.068Z,100621.94
2023-05-13T07:31:12.319Z,100625.09
2023-05-13T07:36:13.510Z,100620.75
2023-05-13T07:41:14.702Z,100622.34
2023-05-13T07:46:15.902Z,100631.53
2023-05-13T07:51:18.426Z,100635.00
2023-05-13T07:56:19.629Z,100629.38
2023-05-13T08:01:20.843Z,100627.88
2023-05-13T08:06:22.054Z,100623.50
2023-05-13T08:11:23.230Z,100629.91
2023-05-13T08:16:24.592Z,100627.69
2023-05-13T08:21:25.820Z,100615.34
2023-05-13T08:26:26.972Z,100622.97
2023-05-13T08:31:28.244Z,100621.13
2023-05-13T08:36:29.570Z,100616.06
2023-05-13T08:41:31.775Z,100612.00
2023-05-13T08:46:32.993Z,100605.53
2023-05-13T08:51:34.249Z,100612.56
2023-05-13T08:56:35.539Z,100602.16
2023-05-13T09:01:36.726Z,100610.69
2023-05-13T09:06:37.925Z,100620.03
2023-05-13T09:11:41.500Z,100618.94
2023-05-13T09:16:43.876Z,100618.84
2023-05-13T09:21:45.199Z,100613.31
2023-05-13T09:26:46.494Z,100604.47
2023-05-13T09:31:48.807Z,100603.28
2023-05-13T09:36:51.187Z,100594.03
2023-05-13T09:41:52.617Z,100584.78
2023-05-13T09:46:53.854Z,100581.69
2023-05-13T09:51:55.094Z,100570.81
2023-05-13T09:56:56.300Z,100564.88
2023-05-13T10:02:00.142Z,100568.75
2023-05-13T10:07:01.435Z,100555.53
2023-05-13T10:12:02.639Z,100548.84
2023-05-13T10:17:05.251Z,100535.53
2023-05-13T10:22:06.549Z,100538.94
2023-05-13T10:27:08.398Z,100519.03
2023-05-13T10:32:09.755Z,100512.47
2023-05-13T10:37:10.976Z,100518.69
2023-05-13T10:42:12.137Z,100520.56
2023-05-13T10:47:13.342Z,100499.22
2023-05-13T10:52:15.145Z,100508.44
2023-05-13T10:57:17.791Z,100499.63
2023-05-13T11:02:19.578Z,100494.47
2023-05-13T11:07:21.536Z,100498.06
2023-05-13T11:12:22.747Z,100498.09
2023-05-13T11:17:23.988Z,100505.06
2023-05-13T11:22:25.342Z,100525.59
2023-05-13T11:27:26.528Z,100527.31
2023-05-13T11:32:27.664Z,100544.81
2023-05-13T11:37:30.831Z,100555.44
2023-05-13T11:42:32.018Z,100577.72
2023-05-13T11:47:33.228Z,100568.97
2023-05-13T11:52:34.785Z,100562.06
2023-05-13T11:57:36.435Z,100556.13
2023-05-13T12:02:38.560Z,100554.50
2023-05-13T12:07:40.092Z,100556.72
2023-05-13T12:12:41.340Z,100562.66
2023-05-13T12:17:42.669Z,100573.59
2023-05-13T12:22:43.927Z,100559.56
2023-05-13T12:27:45.230Z,100558.00
2023-05-13T12:32:47.447Z,100551.63
2023-05-13T12:37:50.028Z,100556.06
2023-05-13T12:42:51.291Z,100559.41
2023-05-13T12:47:52.560Z,100553.09
2023-05-13T12:52:53.845Z,100564.09
2023-05-13T12:57:55.334Z,100579.81
2023-05-13T13:02:56.665Z,100599.84
2023-05-13T13:07:58.036Z,100588.06
2023-05-13T13:12:59.296Z,100553.84
2023-05-13T13:18:00.546Z,100545.38
2023-05-13T13:23:02.055Z,100536.47
2023-05-13T13:28:03.261Z,100529.25
2023-05-13T13:33:04.417Z,100516.81
2023-05-13T13:38:05.626Z,100512.44
2023-05-13T13:43:06.769Z,100509.84
2023-05-13T13:48:08.112Z,100511.56
2023-05-13T13:53:09.429Z,100500.69
2023-05-13T13:58:10.681Z,100498.06
2023-05-13T14:03:12.037Z,100496.81
2023-05-13T14:08:13.349Z,100510.41
2023-05-13T14:13:14.502Z,100512.75
2023-05-13T14:18:15.710Z,100518.78
2023-05-13T14:23:16.902Z,100534.94
2023-05-13T14:28:18.382Z,100526.47
2023-05-13T14:33:19.599Z,100527.63
2023-05-13T14:38:20.815Z,100542.38
2023-05-13T14:43:22.058Z,100549.59
2023-05-13T14:48:23.647Z,100538.72
2023-05-13T14:53:24.863Z,100541.03
2023-05-13T14:58:26.245Z,100543.94
2023-05-13T15:03:27.521Z,100558.38
2023-05-13T15:08:28.761Z,100555.59
2023-05-13T15:13:34.991Z,100548.06
2023-05-13T15:18:36.261Z,100564.06
2023-05-13T15:23:37.468Z,100580.00
2023-05-13T15:28:38.705Z,100589.38
2023-05-13T15:33:39.945Z,100588.03
2023-05-13T15:38:41.330Z,100585.66
2023-05-13T15:43:42.461Z,100597.47
2023-05-13T15:48:43.854Z,100579.69
2023-05-13T15:53:45.042Z,100574.00
2023-05-13T15:58:46.284Z,100549.38
2023-05-13T16:03:47.505Z,100544.16
2023-05-13T16:08:48.942Z,100543.16
2023-05-13T16:13:50.144Z,100527.19
2023-05-13T16:18:52.115Z,100514.59
2023-05-13T16:23:53.360Z,100503.50
2023-05-13T16:28:54.553Z,100512.25
2023-05-13T16:33:55.687Z,100500.75
2023-05-13T16:38:57.297Z,100508.59
2023-05-13T16:43:58.535Z,100508.41
2023-05-13T16:49:00.361Z,100499.19
2023-05-13T16:54:01.679Z,100484.00
2023-05-13T16:59:02.884Z,100476.25
2023-05-13T17:04:04.190Z,100478.22
2023-05-13T17:09:05.884Z,100497.09
2023-05-13T17:14:07.110Z,100493.53
2023-05-13T17:19:08.523Z,100501.84
2023-05-13T17:24:09.787Z,100493.66
2023-05-13T17:29:10.980Z,100502.41
2023-05-13T17:34:12.226Z,100504.97
2023-05-13T17:39:13.382Z,100499.31
2023-05-13T17:44:15.073Z,100509.19
2023-05-13T17:49:16.354Z,100514.41
2023-05-13T17:54:17.686Z,100508.63
2023-05-13T17:59:18.858Z,100497.84
2023-05-13T18:04:21.030Z,100494.00
2023-05-13T18:09:22.230Z,100494.00
2023-05-13T18:14:23.388Z,100490.09
2023-05-13T18:19:24.582Z,100486.69
2023-05-13T18:24:25.760Z,100480.81
2023-05-13T18:29:26.940Z,100491.09
2023-05-13T18:34:28.103Z,100492.00
2023-05-13T18:39:29.315Z,100497.41
2023-05-13T18:44:30.604Z,100499.53
2023-05-13T18:49:32.749Z,100499.50
2023-05-13T18:54:34.020Z,100507.28
2023-05-13T18:59:35.274Z,100501.41
2023-05-13T19:04:36.839Z,100500.97
2023-05-13T19:09:38.037Z,100498.97
2023-05-13T19:14:39.242Z,100510.03
2023-05-13T19:19:41.038Z,100512.47
2023-05-13T19:24:42.218Z,100516.00
2023-05-13T19:29:43.437Z,100512.38
2023-05-13T19:34:44.682Z,100509.94
2023-05-13T19:39:46.009Z,100521.34
2023-05-13T19:44:47.612Z,100530.66
2023-05-13T19:49:48.842Z,100526.00
2023-05-13T19:54:50.055Z,100528.47
2023-05-13T19:59:51.722Z,100538.44
2023-05-13T20:04:52.948Z,100535.00
2023-05-13T20:09:54.097Z,100536.56
2023-05-13T20:14:59.239Z,100542.09
2023-05-13T20:20:00.533Z,100550.84
2023-05-13T20:25:01.810Z,100546.34
2023-05-13T20:30:03.099Z,100552.06
2023-05-13T20:35:04.228Z,100544.91
2023-05-13T20:40:05.514Z,100545.44
2023-05-13T20:45:08.597Z,100549.53
2023-05-13T20:50:09.914Z,100547.03
2023-05-13T20:55:11.055Z,100539.81
2023-05-13T21:00:12.661Z,100539.19
2023-05-13T21:05:13.874Z,100534.44
2023-05-13T21:10:15.996Z,100537.03
2023-05-13T21:15:17.216Z,100534.81
2023-05-13T21:20:18.440Z,100537.00
2023-05-13T21:25:19.829Z,100539.19
2023-05-13T21:30:21.355Z,100533.03
2023-05-13T21:35:22.700Z,100536.28
2023-05-13T21:40:24.070Z,100534.84
2023-05-13T21:45:25.499Z,100540.13
2023-05-13T21:50:26.718Z,100545.81
2023-05-13T21:55:27.947Z,100546.03
2023-05-13T22:00:29.190Z,100540.44
2023-05-13T22:05:30.473Z,100554.41
2023-05-13T22:10:31.660Z,100555.19
2023-05-13T22:15:32.880Z,100545.81
2023-05-13T22:20:34.103Z,100545.44
2023-05-13T22:25:35.330Z,100543.56
2023-05-13T22:30:36.626Z,100543.38
2023-05-13T22:35:39.166Z,100539.53
2023-05-13T22:40:40.679Z,100538.28
2023-05-13T22:45:41.966Z,100546.94
2023-05-13T22:50:43.178Z,100543.34
2023-05-13T22:55:44.439Z,100541.41
2023-05-13T23:00:46.108Z,100535.16
2023-05-13T23:05:47.335Z,100537.22
2023-05-13T23:10:48.561Z,100533.91
2023-05-13T23:15:49.863Z,100520.13
2023-05-13T23:20:51.197Z,100520.56
2023-05-13T23:25:52.429Z,100513.72
2023-05-13T23:30:54.136Z,100513.81
2023-05-13T23:35:55.339Z,100516.44
2023-05-13T23:40:56.552Z,100511.97
2023-05-13T23:45:57.809Z,100519.56
2023-05-13T23:50:59.112Z,100504.78
2023-05-13T23:56:00.299Z,100500.28
